sensor_id;sensor_type;location;lat;lon;timestamp;P1;durP1;ratioP1;P2;durP2;ratioP2
14373;SDS011;7270;49.004;12.066;2022-07-22T00:00:42;0.80;;;0.80;;
14373;SDS011;7270;49.004;12.066;2022-07-22T00:03:09;0.90;;;0.90;;
14373;SDS011;7270;49.004;12.066;2022-07-22T00:05:36;0.87;;;0.87;;
14373;SDS011;7270;49.004;12.066;2022-07-22T00:08:02;0.80;;;0.80;;
14373;SDS011;7270;49.004;12.066;2022-07-22T00:10:29;0.80;;;0.80;;
14373;SDS011;7270;49.004;12.066;2022-07-22T00:12:55;0.80;;;0.80;;
14373;SDS011;7270;49.004;12.066;2022-07-22T00:15:21;0.80;;;0.80;;
14373;SDS011;7270;49.004;12.066;2022-07-22T00:17:49;0.83;;;0.83;;
14373;SDS011;7270;49.004;12.066;2022-07-22T00:20:15;0.80;;;0.80;;
14373;SDS011;7270;49.004;12.066;2022-07-22T00:22:42;0.67;;;0.67;;
14373;SDS011;7270;49.004;12.066;2022-07-22T00:25:08;0.77;;;0.77;;
14373;SDS011;7270;49.004;12.066;2022-07-22T00:27:34;0.83;;;0.83;;
14373;SDS011;7270;49.004;12.066;2022-07-22T00:30:01;0.70;;;0.70;;
14373;SDS011;7270;49.004;12.066;2022-07-22T00:32:27;0.80;;;0.80;;
14373;SDS011;7270;49.004;12.066;2022-07-22T00:34:55;0.73;;;0.73;;
14373;SDS011;7270;49.004;12.066;2022-07-22T00:37:21;0.70;;;0.70;;
14373;SDS011;7270;49.004;12.066;2022-07-22T00:39:47;0.90;;;0.90;;
14373;SDS011;7270;49.004;12.066;2022-07-22T00:42:14;0.70;;;0.70;;
14373;SDS011;7270;49.004;12.066;2022-07-22T00:44:40;0.80;;;0.80;;
14373;SDS011;7270;49.004;12.066;2022-07-22T00:47:06;0.70;;;0.70;;
14373;SDS011;7270;49.004;12.066;2022-07-22T00:49:33;0.77;;;0.77;;
14373;SDS011;7270;49.004;12.066;2022-07-22T00:52:00;0.90;;;0.90;;
14373;SDS011;7270;49.004;12.066;2022-07-22T00:54:27;0.87;;;0.87;;
14373;SDS011;7270;49.004;12.066;2022-07-22T00:56:53;0.80;;;0.80;;
14373;SDS011;7270;49.004;12.066;2022-07-22T00:59:20;0.90;;;0.90;;
14373;SDS011;7270;49.004;12.066;2022-07-22T01:01:46;0.80;;;0.80;;
14373;SDS011;7270;49.004;12.066;2022-07-22T01:04:13;0.93;;;0.93;;
14373;SDS011;7270;49.004;12.066;2022-07-22T01:06:39;0.90;;;0.90;;
14373;SDS011;7270;49.004;12.066;2022-07-22T01:09:11;0.80;;;0.80;;
14373;SDS011;7270;49.004;12.066;2022-07-22T01:11:38;0.90;;;0.90;;
14373;SDS011;7270;49.004;12.066;2022-07-22T01:14:04;0.83;;;0.83;;
14373;SDS011;7270;49.004;12.066;2022-07-22T01:16:30;0.90;;;0.90;;
14373;SDS011;7270;49.004;12.066;2022-07-22T01:18:57;0.80;;;0.80;;
14373;SDS011;7270;49.004;12.066;2022-07-22T01:21:25;0.80;;;0.80;;
14373;SDS011;7270;49.004;12.066;2022-07-22T01:23:51;0.90;;;0.90;;
14373;SDS011;7270;49.004;12.066;2022-07-22T01:26:17;0.80;;;0.80;;
14373;SDS011;7270;49.004;12.066;2022-07-22T01:28:44;0.90;;;0.90;;
14373;SDS011;7270;49.004;12.066;2022-07-22T01:31:10;0.90;;;0.90;;
14373;SDS011;7270;49.004;12.066;2022-07-22T01:33:37;0.80;;;0.80;;
14373;SDS011;7270;49.004;12.066;2022-07-22T01:36:04;0.90;;;0.90;;
14373;SDS011;7270;49.004;12.066;2022-07-22T01:38:32;0.90;;;0.90;;
14373;SDS011;7270;49.004;12.066;2022-07-22T01:40:58;0.83;;;0.83;;
14373;SDS011;7270;49.004;12.066;2022-07-22T01:43:25;0.80;;;0.80;;
14373;SDS011;7270;49.004;12.066;2022-07-22T01:45:51;0.90;;;0.90;;
14373;SDS011;7270;49.004;12.066;2022-07-22T01:48:18;0.80;;;0.80;;
14373;SDS011;7270;49.004;12.066;2022-07-22T01:50:44;0.90;;;0.90;;
14373;SDS011;7270;49.004;12.066;2022-07-22T01:53:10;0.90;;;0.90;;
14373;SDS011;7270;49.004;12.066;2022-07-22T01:55:38;0.70;;;0.70;;
14373;SDS011;7270;49.004;12.066;2022-07-22T01:58:05;0.90;;;0.90;;
14373;SDS011;7270;49.004;12.066;2022-07-22T02:00:31;0.80;;;0.80;;
14373;SDS011;7270;49.004;12.066;2022-07-22T02:02:58;0.80;;;0.80;;
14373;SDS011;7270;49.004;12.066;2022-07-22T02:05:24;0.80;;;0.80;;
14373;SDS011;7270;49.004;12.066;2022-07-22T02:07:51;0.90;;;0.90;;
14373;SDS011;7270;49.004;12.066;2022-07-22T02:10:17;0.80;;;0.80;;
14373;SDS011;7270;49.004;12.066;2022-07-22T02:12:45;0.87;;;0.87;;
14373;SDS011;7270;49.004;12.066;2022-07-22T02:15:11;0.80;;;0.80;;
14373;SDS011;7270;49.004;12.066;2022-07-22T02:17:37;0.80;;;0.80;;
14373;SDS011;7270;49.004;12.066;2022-07-22T02:20:04;0.90;;;0.90;;
14373;SDS011;7270;49.004;12.066;2022-07-22T02:22:31;0.60;;;0.60;;
14373;SDS011;7270;49.004;12.066;2022-07-22T02:24:57;0.90;;;0.90;;
14373;SDS011;7270;49.004;12.066;2022-07-22T02:27:23;0.90;;;0.90;;
14373;SDS011;7270;49.004;12.066;2022-07-22T02:29:51;0.80;;;0.80;;
14373;SDS011;7270;49.004;12.066;2022-07-22T02:32:17;0.83;;;0.83;;
14373;SDS011;7270;49.004;12.066;2022-07-22T02:34:43;0.80;;;0.80;;
14373;SDS011;7270;49.004;12.066;2022-07-22T02:37:10;0.80;;;0.80;;
14373;SDS011;7270;49.004;12.066;2022-07-22T02:39:36;0.80;;;0.80;;
14373;SDS011;7270;49.004;12.066;2022-07-22T02:42:03;0.83;;;0.83;;
14373;SDS011;7270;49.004;12.066;2022-07-22T02:44:29;0.80;;;0.80;;
14373;SDS011;7270;49.004;12.066;2022-07-22T02:46:57;0.73;;;0.73;;
14373;SDS011;7270;49.004;12.066;2022-07-22T02:49:23;0.60;;;0.60;;
14373;SDS011;7270;49.004;12.066;2022-07-22T02:51:49;0.80;;;0.80;;
14373;SDS011;7270;49.004;12.066;2022-07-22T02:54:16;0.90;;;0.90;;
14373;SDS011;7270;49.004;12.066;2022-07-22T02:56:42;0.80;;;0.80;;
14373;SDS011;7270;49.004;12.066;2022-07-22T02:59:08;0.70;;;0.70;;
14373;SDS011;7270;49.004;12.066;2022-07-22T03:01:35;0.90;;;0.90;;
14373;SDS011;7270;49.004;12.066;2022-07-22T03:04:02;0.90;;;0.90;;
14373;SDS011;7270;49.004;12.066;2022-07-22T03:06:29;0.80;;;0.80;;
14373;SDS011;7270;49.004;12.066;2022-07-22T03:08:55;0.90;;;0.90;;
14373;SDS011;7270;49.004;12.066;2022-07-22T03:11:21;0.90;;;0.90;;
14373;SDS011;7270;49.004;12.066;2022-07-22T03:13:47;0.90;;;0.90;;
14373;SDS011;7270;49.004;12.066;2022-07-22T03:16:14;0.80;;;0.80;;
14373;SDS011;7270;49.004;12.066;2022-07-22T03:18:40;0.90;;;0.90;;
14373;SDS011;7270;49.004;12.066;2022-07-22T03:21:08;0.80;;;0.80;;
14373;SDS011;7270;49.004;12.066;2022-07-22T03:23:34;0.80;;;0.80;;
14373;SDS011;7270;49.004;12.066;2022-07-22T03:26:00;0.70;;;0.70;;
14373;SDS011;7270;49.004;12.066;2022-07-22T03:28:27;0.73;;;0.73;;
14373;SDS011;7270;49.004;12.066;2022-07-22T03:30:53;0.80;;;0.80;;
14373;SDS011;7270;49.004;12.066;2022-07-22T03:33:20;0.80;;;0.80;;
14373;SDS011;7270;49.004;12.066;2022-07-22T03:35:46;0.90;;;0.90;;
14373;SDS011;7270;49.004;12.066;2022-07-22T03:38:13;0.90;;;0.90;;
14373;SDS011;7270;49.004;12.066;2022-07-22T03:40:40;0.90;;;0.90;;
14373;SDS011;7270;49.004;12.066;2022-07-22T03:43:06;0.80;;;0.80;;
14373;SDS011;7270;49.004;12.066;2022-07-22T03:45:32;0.87;;;0.87;;
14373;SDS011;7270;49.004;12.066;2022-07-22T03:47:59;0.80;;;0.80;;
14373;SDS011;7270;49.004;12.066;2022-07-22T03:50:25;0.80;;;0.80;;
14373;SDS011;7270;49.004;12.066;2022-07-22T03:52:51;0.87;;;0.87;;
14373;SDS011;7270;49.004;12.066;2022-07-22T03:55:19;0.80;;;0.80;;
14373;SDS011;7270;49.004;12.066;2022-07-22T03:57:45;0.90;;;0.90;;
14373;SDS011;7270;49.004;12.066;2022-07-22T04:00:12;0.80;;;0.80;;
14373;SDS011;7270;49.004;12.066;2022-07-22T04:02:38;0.80;;;0.80;;
14373;SDS011;7270;49.004;12.066;2022-07-22T04:05:05;0.90;;;0.90;;
14373;SDS011;7270;49.004;12.066;2022-07-22T04:07:31;1.00;;;1.00;;
14373;SDS011;7270;49.004;12.066;2022-07-22T04:09:58;0.87;;;0.87;;
14373;SDS011;7270;49.004;12.066;2022-07-22T04:12:33;0.53;;;0.53;;
14373;SDS011;7270;49.004;12.066;2022-07-22T04:15:00;0.83;;;0.83;;
14373;SDS011;7270;49.004;12.066;2022-07-22T04:17:26;0.90;;;0.90;;
14373;SDS011;7270;49.004;12.066;2022-07-22T04:19:52;0.90;;;0.90;;
14373;SDS011;7270;49.004;12.066;2022-07-22T04:22:19;0.90;;;0.90;;
14373;SDS011;7270;49.004;12.066;2022-07-22T04:24:45;0.80;;;0.80;;
14373;SDS011;7270;49.004;12.066;2022-07-22T04:27:11;0.80;;;0.80;;
14373;SDS011;7270;49.004;12.066;2022-07-22T04:29:39;0.90;;;0.90;;
14373;SDS011;7270;49.004;12.066;2022-07-22T04:32:05;0.80;;;0.80;;
14373;SDS011;7270;49.004;12.066;2022-07-22T04:34:31;0.80;;;0.80;;
14373;SDS011;7270;49.004;12.066;2022-07-22T04:36:58;0.80;;;0.80;;
14373;SDS011;7270;49.004;12.066;2022-07-22T04:39:24;0.80;;;0.80;;
14373;SDS011;7270;49.004;12.066;2022-07-22T04:41:50;0.87;;;0.87;;
14373;SDS011;7270;49.004;12.066;2022-07-22T04:44:17;0.83;;;0.83;;
14373;SDS011;7270;49.004;12.066;2022-07-22T04:46:44;0.90;;;0.90;;
14373;SDS011;7270;49.004;12.066;2022-07-22T04:49:11;0.80;;;0.80;;
14373;SDS011;7270;49.004;12.066;2022-07-22T04:51:37;0.90;;;0.90;;
14373;SDS011;7270;49.004;12.066;2022-07-22T04:54:03;0.90;;;0.90;;
14373;SDS011;7270;49.004;12.066;2022-07-22T04:56:29;0.90;;;0.90;;
14373;SDS011;7270;49.004;12.066;2022-07-22T04:58:56;0.70;;;0.70;;
14373;SDS011;7270;49.004;12.066;2022-07-22T05:01:22;0.80;;;0.80;;
14373;SDS011;7270;49.004;12.066;2022-07-22T05:03:50;0.80;;;0.80;;
14373;SDS011;7270;49.004;12.066;2022-07-22T05:06:17;0.80;;;0.80;;
14373;SDS011;7270;49.004;12.066;2022-07-22T05:08:43;0.80;;;0.80;;
14373;SDS011;7270;49.004;12.066;2022-07-22T05:11:09;0.90;;;0.90;;
14373;SDS011;7270;49.004;12.066;2022-07-22T05:13:35;0.80;;;0.80;;
14373;SDS011;7270;49.004;12.066;2022-07-22T05:16:02;0.60;;;0.60;;
14373;SDS011;7270;49.004;12.066;2022-07-22T05:18:28;0.80;;;0.80;;
14373;SDS011;7270;49.004;12.066;2022-07-22T05:20:56;0.80;;;0.80;;
14373;SDS011;7270;49.004;12.066;2022-07-22T05:23:22;0.77;;;0.77;;
14373;SDS011;7270;49.004;12.066;2022-07-22T05:25:48;0.90;;;0.90;;
14373;SDS011;7270;49.004;12.066;2022-07-22T05:28:15;0.80;;;0.80;;
14373;SDS011;7270;49.004;12.066;2022-07-22T05:30:41;0.80;;;0.80;;
14373;SDS011;7270;49.004;12.066;2022-07-22T05:33:07;0.73;;;0.73;;
14373;SDS011;7270;49.004;12.066;2022-07-22T05:35:34;0.90;;;0.90;;
14373;SDS011;7270;49.004;12.066;2022-07-22T05:38:01;0.80;;;0.80;;
14373;SDS011;7270;49.004;12.066;2022-07-22T05:40:28;0.70;;;0.70;;
14373;SDS011;7270;49.004;12.066;2022-07-22T05:42:55;0.80;;;0.80;;
14373;SDS011;7270;49.004;12.066;2022-07-22T05:45:21;0.90;;;0.90;;
14373;SDS011;7270;49.004;12.066;2022-07-22T05:47:47;0.70;;;0.70;;
14373;SDS011;7270;49.004;12.066;2022-07-22T05:50:13;0.83;;;0.83;;
14373;SDS011;7270;49.004;12.066;2022-07-22T05:52:40;0.80;;;0.80;;
14373;SDS011;7270;49.004;12.066;2022-07-22T05:55:07;0.80;;;0.80;;
14373;SDS011;7270;49.004;12.066;2022-07-22T05:57:35;0.90;;;0.90;;
14373;SDS011;7270;49.004;12.066;2022-07-22T06:00:01;0.80;;;0.80;;
14373;SDS011;7270;49.004;12.066;2022-07-22T06:02:28;0.90;;;0.90;;
14373;SDS011;7270;49.004;12.066;2022-07-22T06:04:54;0.80;;;0.80;;
14373;SDS011;7270;49.004;12.066;2022-07-22T06:07:21;0.87;;;0.87;;
14373;SDS011;7270;49.004;12.066;2022-07-22T06:09:51;0.87;;;0.87;;
14373;SDS011;7270;49.004;12.066;2022-07-22T06:12:19;0.90;;;0.90;;
14373;SDS011;7270;49.004;12.066;2022-07-22T06:14:45;0.90;;;0.90;;
14373;SDS011;7270;49.004;12.066;2022-07-22T06:17:12;0.90;;;0.90;;
14373;SDS011;7270;49.004;12.066;2022-07-22T06:19:38;0.80;;;0.80;;
14373;SDS011;7270;49.004;12.066;2022-07-22T06:22:07;0.70;;;0.70;;
14373;SDS011;7270;49.004;12.066;2022-07-22T06:24:34;0.80;;;0.80;;
14373;SDS011;7270;49.004;12.066;2022-07-22T06:27:01;0.90;;;0.90;;
14373;SDS011;7270;49.004;12.066;2022-07-22T06:29:28;0.90;;;0.90;;
14373;SDS011;7270;49.004;12.066;2022-07-22T06:31:55;0.90;;;0.90;;
14373;SDS011;7270;49.004;12.066;2022-07-22T06:34:21;0.80;;;0.80;;
14373;SDS011;7270;49.004;12.066;2022-07-22T06:36:47;0.90;;;0.90;;
14373;SDS011;7270;49.004;12.066;2022-07-22T06:39:16;0.90;;;0.90;;
14373;SDS011;7270;49.004;12.066;2022-07-22T06:41:42;0.90;;;0.90;;
14373;SDS011;7270;49.004;12.066;2022-07-22T06:44:09;0.90;;;0.90;;
14373;SDS011;7270;49.004;12.066;2022-07-22T06:46:36;0.90;;;0.90;;
14373;SDS011;7270;49.004;12.066;2022-07-22T06:49:15;0.90;;;0.90;;
14373;SDS011;7270;49.004;12.066;2022-07-22T06:51:41;1.00;;;1.00;;
14373;SDS011;7270;49.004;12.066;2022-07-22T06:54:08;0.90;;;0.90;;
14373;SDS011;7270;49.004;12.066;2022-07-22T06:56:34;0.90;;;0.90;;
14373;SDS011;7270;49.004;12.066;2022-07-22T06:59:01;0.90;;;0.90;;
14373;SDS011;7270;49.004;12.066;2022-07-22T07:01:27;0.90;;;0.90;;
14373;SDS011;7270;49.004;12.066;2022-07-22T07:03:55;0.90;;;0.90;;
14373;SDS011;7270;49.004;12.066;2022-07-22T07:06:21;0.90;;;0.90;;
14373;SDS011;7270;49.004;12.066;2022-07-22T07:08:48;1.10;;;1.10;;
14373;SDS011;7270;49.004;12.066;2022-07-22T07:11:16;1.10;;;1.10;;
14373;SDS011;7270;49.004;12.066;2022-07-22T07:13:43;1.13;;;1.13;;
14373;SDS011;7270;49.004;12.066;2022-07-22T07:16:09;1.30;;;1.20;;
14373;SDS011;7270;49.004;12.066;2022-07-22T07:18:35;1.10;;;1.10;;
14373;SDS011;7270;49.004;12.066;2022-07-22T07:21:04;1.33;;;1.23;;
14373;SDS011;7270;49.004;12.066;2022-07-22T07:23:30;1.27;;;1.20;;
14373;SDS011;7270;49.004;12.066;2022-07-22T07:25:57;1.40;;;1.30;;
14373;SDS011;7270;49.004;12.066;2022-07-22T07:28:23;1.40;;;1.30;;
14373;SDS011;7270;49.004;12.066;2022-07-22T07:30:49;1.40;;;1.30;;
14373;SDS011;7270;49.004;12.066;2022-07-22T07:33:16;1.50;;;1.40;;
14373;SDS011;7270;49.004;12.066;2022-07-22T07:35:42;1.40;;;1.30;;
14373;SDS011;7270;49.004;12.066;2022-07-22T07:38:10;1.50;;;1.40;;
14373;SDS011;7270;49.004;12.066;2022-07-22T07:40:36;1.50;;;1.40;;
14373;SDS011;7270;49.004;12.066;2022-07-22T07:43:03;1.60;;;1.50;;
14373;SDS011;7270;49.004;12.066;2022-07-22T07:45:29;1.60;;;1.50;;
14373;SDS011;7270;49.004;12.066;2022-07-22T07:47:56;1.70;;;1.60;;
14373;SDS011;7270;49.004;12.066;2022-07-22T07:50:23;1.70;;;1.60;;
14373;SDS011;7270;49.004;12.066;2022-07-22T07:52:49;1.70;;;1.60;;
14373;SDS011;7270;49.004;12.066;2022-07-22T07:55:19;1.80;;;1.70;;
14373;SDS011;7270;49.004;12.066;2022-07-22T07:57:48;1.90;;;1.80;;
14373;SDS011;7270;49.004;12.066;2022-07-22T08:00:15;1.90;;;1.80;;
14373;SDS011;7270;49.004;12.066;2022-07-22T08:02:42;1.90;;;1.80;;
14373;SDS011;7270;49.004;12.066;2022-07-22T08:05:12;2.00;;;1.90;;
14373;SDS011;7270;49.004;12.066;2022-07-22T08:07:38;2.03;;;1.92;;
14373;SDS011;7270;49.004;12.066;2022-07-22T08:10:05;2.10;;;2.00;;
14373;SDS011;7270;49.004;12.066;2022-07-22T08:12:33;2.20;;;2.10;;
14373;SDS011;7270;49.004;12.066;2022-07-22T08:14:59;2.40;;;2.30;;
14373;SDS011;7270;49.004;12.066;2022-07-22T08:17:26;2.30;;;2.20;;
14373;SDS011;7270;49.004;12.066;2022-07-22T08:19:52;2.20;;;2.10;;
14373;SDS011;7270;49.004;12.066;2022-07-22T08:22:18;2.20;;;2.10;;
14373;SDS011;7270;49.004;12.066;2022-07-22T08:24:45;2.40;;;2.30;;
14373;SDS011;7270;49.004;12.066;2022-07-22T08:27:11;2.40;;;2.30;;
14373;SDS011;7270;49.004;12.066;2022-07-22T08:29:39;2.53;;;2.42;;
14373;SDS011;7270;49.004;12.066;2022-07-22T08:32:05;2.42;;;2.33;;
14373;SDS011;7270;49.004;12.066;2022-07-22T08:34:32;2.30;;;2.20;;
14373;SDS011;7270;49.004;12.066;2022-07-22T08:36:58;2.60;;;2.50;;
14373;SDS011;7270;49.004;12.066;2022-07-22T08:39:24;2.70;;;2.60;;
14373;SDS011;7270;49.004;12.066;2022-07-22T08:41:51;2.70;;;2.60;;
14373;SDS011;7270;49.004;12.066;2022-07-22T08:44:17;2.70;;;2.60;;
14373;SDS011;7270;49.004;12.066;2022-07-22T08:46:45;2.88;;;2.78;;
14373;SDS011;7270;49.004;12.066;2022-07-22T08:49:12;3.00;;;2.90;;
14373;SDS011;7270;49.004;12.066;2022-07-22T08:51:39;3.17;;;3.08;;
14373;SDS011;7270;49.004;12.066;2022-07-22T08:54:05;2.97;;;2.88;;
14373;SDS011;7270;49.004;12.066;2022-07-22T08:56:31;3.10;;;3.00;;
14373;SDS011;7270;49.004;12.066;2022-07-22T08:58:58;3.20;;;3.10;;
14373;SDS011;7270;49.004;12.066;2022-07-22T09:01:25;3.50;;;3.30;;
14373;SDS011;7270;49.004;12.066;2022-07-22T09:03:53;3.30;;;3.20;;
14373;SDS011;7270;49.004;12.066;2022-07-22T09:06:21;3.60;;;3.40;;
14373;SDS011;7270;49.004;12.066;2022-07-22T09:08:52;3.70;;;3.50;;
14373;SDS011;7270;49.004;12.066;2022-07-22T09:11:19;3.67;;;3.47;;
14373;SDS011;7270;49.004;12.066;2022-07-22T09:13:46;3.92;;;3.72;;
14373;SDS011;7270;49.004;12.066;2022-07-22T09:16:12;4.00;;;3.80;;
14373;SDS011;7270;49.004;12.066;2022-07-22T09:18:45;5.50;;;5.20;;
14373;SDS011;7270;49.004;12.066;2022-07-22T09:21:15;4.80;;;4.60;;
14373;SDS011;7270;49.004;12.066;2022-07-22T09:23:41;4.50;;;4.30;;
14373;SDS011;7270;49.004;12.066;2022-07-22T09:26:08;4.40;;;4.20;;
14373;SDS011;7270;49.004;12.066;2022-07-22T09:28:35;4.50;;;4.30;;
14373;SDS011;7270;49.004;12.066;2022-07-22T09:31:03;4.43;;;4.22;;
14373;SDS011;7270;49.004;12.066;2022-07-22T09:33:29;4.40;;;4.20;;
14373;SDS011;7270;49.004;12.066;2022-07-22T09:36:01;4.50;;;4.30;;
14373;SDS011;7270;49.004;12.066;2022-07-22T09:38:29;4.47;;;4.28;;
14373;SDS011;7270;49.004;12.066;2022-07-22T09:40:56;4.32;;;4.13;;
14373;SDS011;7270;49.004;12.066;2022-07-22T09:43:23;4.30;;;4.10;;
14373;SDS011;7270;49.004;12.066;2022-07-22T09:45:54;4.20;;;4.00;;
14373;SDS011;7270;49.004;12.066;2022-07-22T09:48:22;4.40;;;4.20;;
14373;SDS011;7270;49.004;12.066;2022-07-22T09:50:49;4.53;;;4.32;;
14373;SDS011;7270;49.004;12.066;2022-07-22T09:53:16;4.30;;;4.10;;
14373;SDS011;7270;49.004;12.066;2022-07-22T09:55:43;4.40;;;4.20;;
14373;SDS011;7270;49.004;12.066;2022-07-22T09:58:10;4.25;;;4.05;;
14373;SDS011;7270;49.004;12.066;2022-07-22T10:00:37;4.38;;;4.18;;
14373;SDS011;7270;49.004;12.066;2022-07-22T10:03:04;4.50;;;4.30;;
14373;SDS011;7270;49.004;12.066;2022-07-22T10:05:32;4.50;;;4.30;;
14373;SDS011;7270;49.004;12.066;2022-07-22T10:07:59;4.60;;;4.40;;
14373;SDS011;7270;49.004;12.066;2022-07-22T10:10:26;4.53;;;4.32;;
14373;SDS011;7270;49.004;12.066;2022-07-22T10:12:54;5.15;;;4.95;;
14373;SDS011;7270;49.004;12.066;2022-07-22T10:15:21;5.05;;;4.85;;
14373;SDS011;7270;49.004;12.066;2022-07-22T10:17:52;5.00;;;4.80;;
14373;SDS011;7270;49.004;12.066;2022-07-22T10:20:20;4.85;;;4.65;;
14373;SDS011;7270;49.004;12.066;2022-07-22T10:22:53;4.95;;;4.75;;
14373;SDS011;7270;49.004;12.066;2022-07-22T10:25:20;5.10;;;4.90;;
14373;SDS011;7270;49.004;12.066;2022-07-22T10:27:48;4.88;;;4.68;;
14373;SDS011;7270;49.004;12.066;2022-07-22T10:30:19;5.43;;;5.22;;
14373;SDS011;7270;49.004;12.066;2022-07-22T10:32:46;4.97;;;4.78;;
14373;SDS011;7270;49.004;12.066;2022-07-22T10:35:26;5.30;;;5.10;;
14373;SDS011;7270;49.004;12.066;2022-07-22T10:37:57;5.30;;;5.10;;
14373;SDS011;7270;49.004;12.066;2022-07-22T10:40:24;5.20;;;5.00;;
14373;SDS011;7270;49.004;12.066;2022-07-22T10:43:08;5.20;;;5.00;;
14373;SDS011;7270;49.004;12.066;2022-07-22T10:45:38;5.78;;;5.47;;
14373;SDS011;7270;49.004;12.066;2022-07-22T10:48:05;5.10;;;4.90;;
14373;SDS011;7270;49.004;12.066;2022-07-22T10:50:41;5.00;;;4.80;;
14373;SDS011;7270;49.004;12.066;2022-07-22T10:53:08;4.95;;;4.75;;
14373;SDS011;7270;49.004;12.066;2022-07-22T10:55:34;4.90;;;4.70;;
14373;SDS011;7270;49.004;12.066;2022-07-22T10:58:05;5.00;;;4.80;;
14373;SDS011;7270;49.004;12.066;2022-07-22T11:00:52;4.72;;;4.53;;
14373;SDS011;7270;49.004;12.066;2022-07-22T11:03:23;4.05;;;3.85;;
14373;SDS011;7270;49.004;12.066;2022-07-22T11:05:49;3.50;;;3.30;;
14373;SDS011;7270;49.004;12.066;2022-07-22T11:08:16;2.90;;;2.80;;
14373;SDS011;7270;49.004;12.066;2022-07-22T11:10:46;2.42;;;2.33;;
14373;SDS011;7270;49.004;12.066;2022-07-22T11:13:12;2.40;;;2.30;;
14373;SDS011;7270;49.004;12.066;2022-07-22T11:15:38;2.20;;;2.10;;
14373;SDS011;7270;49.004;12.066;2022-07-22T11:18:06;2.40;;;2.30;;
14373;SDS011;7270;49.004;12.066;2022-07-22T11:20:33;2.50;;;2.40;;
14373;SDS011;7270;49.004;12.066;2022-07-22T11:22:59;2.70;;;2.60;;
14373;SDS011;7270;49.004;12.066;2022-07-22T11:25:25;2.80;;;2.70;;
14373;SDS011;7270;49.004;12.066;2022-07-22T11:27:54;2.22;;;2.13;;
14373;SDS011;7270;49.004;12.066;2022-07-22T11:30:23;2.30;;;2.20;;
14373;SDS011;7270;49.004;12.066;2022-07-22T11:32:50;2.40;;;2.30;;
14373;SDS011;7270;49.004;12.066;2022-07-22T11:35:18;2.40;;;2.30;;
14373;SDS011;7270;49.004;12.066;2022-07-22T11:37:54;2.60;;;2.50;;
14373;SDS011;7270;49.004;12.066;2022-07-22T11:40:20;2.80;;;2.70;;
14373;SDS011;7270;49.004;12.066;2022-07-22T11:42:59;2.85;;;2.75;;
14373;SDS011;7270;49.004;12.066;2022-07-22T11:45:26;2.70;;;2.60;;
14373;SDS011;7270;49.004;12.066;2022-07-22T11:47:54;2.58;;;2.47;;
14373;SDS011;7270;49.004;12.066;2022-07-22T11:50:30;2.30;;;2.20;;
14373;SDS011;7270;49.004;12.066;2022-07-22T11:53:01;2.20;;;2.10;;
14373;SDS011;7270;49.004;12.066;2022-07-22T11:55:27;2.28;;;2.17;;
14373;SDS011;7270;49.004;12.066;2022-07-22T11:57:54;2.20;;;2.10;;
14373;SDS011;7270;49.004;12.066;2022-07-22T12:00:20;2.10;;;2.00;;
14373;SDS011;7270;49.004;12.066;2022-07-22T12:02:47;2.20;;;2.10;;
14373;SDS011;7270;49.004;12.066;2022-07-22T12:05:14;2.08;;;1.98;;
14373;SDS011;7270;49.004;12.066;2022-07-22T12:07:42;2.10;;;2.00;;
14373;SDS011;7270;49.004;12.066;2022-07-22T12:10:09;2.00;;;1.90;;
14373;SDS011;7270;49.004;12.066;2022-07-22T12:12:42;1.95;;;1.85;;
14373;SDS011;7270;49.004;12.066;2022-07-22T12:15:10;1.90;;;1.80;;
14373;SDS011;7270;49.004;12.066;2022-07-22T12:17:40;1.90;;;1.80;;
14373;SDS011;7270;49.004;12.066;2022-07-22T12:20:09;2.00;;;1.90;;
14373;SDS011;7270;49.004;12.066;2022-07-22T12:22:45;1.80;;;1.70;;
14373;SDS011;7270;49.004;12.066;2022-07-22T12:25:11;1.90;;;1.80;;
14373;SDS011;7270;49.004;12.066;2022-07-22T12:27:38;1.80;;;1.70;;
14373;SDS011;7270;49.004;12.066;2022-07-22T12:30:10;1.90;;;1.80;;
14373;SDS011;7270;49.004;12.066;2022-07-22T12:32:45;1.90;;;1.80;;
14373;SDS011;7270;49.004;12.066;2022-07-22T12:35:13;1.90;;;1.80;;
14373;SDS011;7270;49.004;12.066;2022-07-22T12:37:41;1.90;;;1.80;;
14373;SDS011;7270;49.004;12.066;2022-07-22T12:40:18;1.90;;;1.80;;
14373;SDS011;7270;49.004;12.066;2022-07-22T12:42:45;2.10;;;2.00;;
14373;SDS011;7270;49.004;12.066;2022-07-22T12:45:13;1.80;;;1.70;;
14373;SDS011;7270;49.004;12.066;2022-07-22T12:47:46;1.80;;;1.70;;
14373;SDS011;7270;49.004;12.066;2022-07-22T12:50:20;1.80;;;1.70;;
14373;SDS011;7270;49.004;12.066;2022-07-22T12:52:46;1.70;;;1.60;;
14373;SDS011;7270;49.004;12.066;2022-07-22T12:55:13;1.70;;;1.60;;
14373;SDS011;7270;49.004;12.066;2022-07-22T12:57:41;1.67;;;1.57;;
14373;SDS011;7270;49.004;12.066;2022-07-22T13:00:08;1.80;;;1.70;;
14373;SDS011;7270;49.004;12.066;2022-07-22T13:02:35;1.60;;;1.50;;
14373;SDS011;7270;49.004;12.066;2022-07-22T13:05:02;1.70;;;1.60;;
14373;SDS011;7270;49.004;12.066;2022-07-22T13:07:29;1.60;;;1.50;;
14373;SDS011;7270;49.004;12.066;2022-07-22T13:09:55;1.70;;;1.60;;
14373;SDS011;7270;49.004;12.066;2022-07-22T13:12:21;1.70;;;1.60;;
14373;SDS011;7270;49.004;12.066;2022-07-22T13:14:49;1.70;;;1.60;;
14373;SDS011;7270;49.004;12.066;2022-07-22T13:17:15;1.60;;;1.50;;
14373;SDS011;7270;49.004;12.066;2022-07-22T13:19:43;1.60;;;1.50;;
14373;SDS011;7270;49.004;12.066;2022-07-22T13:22:09;1.60;;;1.50;;
14373;SDS011;7270;49.004;12.066;2022-07-22T13:24:36;1.50;;;1.40;;
14373;SDS011;7270;49.004;12.066;2022-07-22T13:27:02;1.67;;;1.57;;
14373;SDS011;7270;49.004;12.066;2022-07-22T13:29:29;1.60;;;1.50;;
14373;SDS011;7270;49.004;12.066;2022-07-22T13:31:56;1.60;;;1.50;;
14373;SDS011;7270;49.004;12.066;2022-07-22T13:34:23;1.50;;;1.40;;
14373;SDS011;7270;49.004;12.066;2022-07-22T13:36:49;1.60;;;1.50;;
14373;SDS011;7270;49.004;12.066;2022-07-22T13:39:16;1.50;;;1.40;;
14373;SDS011;7270;49.004;12.066;2022-07-22T13:41:42;1.60;;;1.50;;
14373;SDS011;7270;49.004;12.066;2022-07-22T13:44:09;1.60;;;1.50;;
14373;SDS011;7270;49.004;12.066;2022-07-22T13:46:35;1.50;;;1.40;;
14373;SDS011;7270;49.004;12.066;2022-07-22T13:49:03;1.60;;;1.50;;
14373;SDS011;7270;49.004;12.066;2022-07-22T13:51:29;1.50;;;1.40;;
14373;SDS011;7270;49.004;12.066;2022-07-22T13:53:57;1.70;;;1.60;;
14373;SDS011;7270;49.004;12.066;2022-07-22T13:56:23;1.50;;;1.40;;
14373;SDS011;7270;49.004;12.066;2022-07-22T13:58:49;1.50;;;1.40;;
14373;SDS011;7270;49.004;12.066;2022-07-22T14:01:16;1.50;;;1.40;;
14373;SDS011;7270;49.004;12.066;2022-07-22T14:03:42;1.60;;;1.50;;
14373;SDS011;7270;49.004;12.066;2022-07-22T14:06:12;1.50;;;1.40;;
14373;SDS011;7270;49.004;12.066;2022-07-22T14:08:39;1.50;;;1.40;;
14373;SDS011;7270;49.004;12.066;2022-07-22T14:11:05;1.50;;;1.40;;
14373;SDS011;7270;49.004;12.066;2022-07-22T14:13:31;1.50;;;1.40;;
14373;SDS011;7270;49.004;12.066;2022-07-22T14:15:58;1.50;;;1.40;;
14373;SDS011;7270;49.004;12.066;2022-07-22T14:18:44;1.50;;;1.40;;
14373;SDS011;7270;49.004;12.066;2022-07-22T14:21:15;1.50;;;1.40;;
14373;SDS011;7270;49.004;12.066;2022-07-22T14:23:41;1.50;;;1.40;;
14373;SDS011;7270;49.004;12.066;2022-07-22T14:26:07;1.60;;;1.50;;
14373;SDS011;7270;49.004;12.066;2022-07-22T14:28:34;1.50;;;1.40;;
14373;SDS011;7270;49.004;12.066;2022-07-22T14:31:00;1.60;;;1.50;;
14373;SDS011;7270;49.004;12.066;2022-07-22T14:33:26;1.50;;;1.40;;
14373;SDS011;7270;49.004;12.066;2022-07-22T14:35:54;1.57;;;1.47;;
14373;SDS011;7270;49.004;12.066;2022-07-22T14:38:22;1.50;;;1.40;;
14373;SDS011;7270;49.004;12.066;2022-07-22T14:40:48;1.50;;;1.40;;
14373;SDS011;7270;49.004;12.066;2022-07-22T14:43:15;1.60;;;1.50;;
14373;SDS011;7270;49.004;12.066;2022-07-22T14:45:41;1.50;;;1.40;;
14373;SDS011;7270;49.004;12.066;2022-07-22T14:48:07;1.57;;;1.47;;